• Join FlightAware (Why Join?)
  • Login
  • US Flag 
05:49AM EDT


 

Airport Tracker/Info


-or-


 

Live Flight TrackerFlight Track Log ✈ UAL5840 ✈ 13-Jul-2013 ✈ KROC - KEWR

Flight Track Log - Related Links

Times and Time Zones

All times are in EDT time to prevent confusion due to time zone crossing. See the UAL5840 flight status page for this flight to view local times or setup timezone preferences in your user account.

Time Position Orientation Groundspeed Altitude Reporting Facility
EDT Latitude Longitude Course Direction KTS MPH feet Rate Location/Type
04:31PM 43.1794 -77.6478 16° North 210 242 3,400  Level Cleveland Center
04:32PM 43.1614 -77.5889 113° Southeast 205 236 5,200 2,160 Climbing Cleveland Center
04:33PM 43.1219 -77.5169 127° Southeast 243 280 7,600 2,100 Climbing Cleveland Center
04:34PM 43.0803 -77.4422 127° Southeast 248 285 9,500 1,140 Climbing Cleveland Center
04:36PM 42.9875 -77.2775 128° Southeast 290 334 11,000 780 Climbing Boston Center
04:37PM 42.9194 -77.1617 129° Southeast 333 383 11,800 900 Climbing Boston Center
04:38PM 42.8533 -77.0461 128° Southeast 364 419 12,900 1,080 Climbing Boston Center
04:39PM 42.7911 -76.9283 126° Southeast 381 438 14,000 1,140 Climbing Boston Center
04:40PM 42.7378 -76.8028 120° Southeast 381 438 15,200 1,020 Climbing Boston Center
04:41PM 42.6839 -76.6803 121° Southeast 387 445 16,300 1,080 Climbing Boston Center
04:42PM 42.6186 -76.5289 120° Southeast 387 445 17,600 1,020 Climbing Boston Center
04:43PM 42.5625 -76.4097 123° Southeast 382 440 18,400 1,200 Climbing Boston Center
04:44PM 42.5061 -76.2878 122° Southeast 382 440 20,100 1,440 Climbing Boston Center
04:45PM 42.4617 -76.1808 119° Southeast 372 428 21,300 1,080 Climbing Boston Center
04:46PM 42.4053 -76.0592 122° Southeast 372 428 22,300 900 Climbing Boston Center
04:47PM 42.3486 -75.9350 122° Southeast 384 442 23,200 900 Climbing Boston Center
04:48PM 42.2919 -75.8083 121° Southeast 384 442 24,100 -180 Climbing Boston Center
04:49PM 42.2292 -75.6733 122° Southeast 404 465 22,900 -3,060 Descending Boston Center
04:50PM 42.1644 -75.5325 122° Southeast 427 491 18,000 -2,400 Descending Boston Center
04:51PM 42.1014 -75.3950 122° Southeast 434 499 18,200  Climbing Boston Center
04:52PM 42.0383 -75.2494 120° Southeast 429 494 18,000 -120 Descending Boston Center
04:53PM 41.9836 -75.1047 117° Southeast 423 487 18,000  Level Boston Center
04:54PM 41.9364 -74.9797 117° Southeast 417 480 18,000  Level Boston Center
04:55PM 41.8772 -74.8242 117° Southeast 417 480 18,000  Level Boston Center
04:56PM 41.8297 -74.6969 117° Southeast 417 480 18,000 -300 Level Boston Center
04:57PM 41.7553 -74.5606 126° Southeast 417 480 17,400 -1,500 Descending Boston Center
04:58PM 41.6756 -74.4744 141° Southeast 412 474 15,000 -2,700 Descending Boston Center
04:59PM 41.5833 -74.3800 143° Southeast 399 459 12,000 -2,580 Descending Boston Center
05:00PM 41.5025 -74.3583 169° South 337 388 9,900 -2,040 Descending Boston Center
05:02PM 41.3833 -74.4000 195° South 252 290 6,800 -1,560 Descending New York TRACON
05:03PM 41.3167 -74.3667 159° South 263 303 6,000 -420 Descending New York TRACON
05:04PM 41.2500 -74.3500 169° South 260 299 6,000 -480 Level New York TRACON
05:05PM 41.1833 -74.3000 151° Southeast 260 299 5,100 -540 Descending New York TRACON
05:06PM 41.1333 -74.2667 153° Southeast 228 262 5,000 -60 Descending New York TRACON
05:07PM 41.0667 -74.2167 151° Southeast 224 258 5,000 -300 Level New York TRACON
05:08PM 41.0167 -74.1833 153° Southeast 230 265 4,500 -540 Descending New York TRACON
05:09PM 40.9667 -74.1500 153° Southeast 215 247 4,000 -300 Descending New York TRACON
05:10PM 40.9000 -74.1000 150° Southeast 211 243 4,000 -420 Level New York TRACON
05:11PM 40.8667 -74.0833 159° South 181 208 3,200 -780 Descending New York TRACON
05:12PM 40.8167 -74.0833 180° South 182 209 2,500 -720 Descending New York TRACON